createdAt,value
2023-03-22T00:00:39.988Z,9.457472
2023-03-22T00:01:39.675Z,9.457441
2023-03-22T00:02:39.694Z,9.457274
2023-03-22T00:03:39.659Z,9.457287
2023-03-22T00:04:39.661Z,9.457294
2023-03-22T00:05:39.602Z,9.457295
2023-03-22T00:06:39.622Z,9.457364
2023-03-22T00:07:39.592Z,9.457542
2023-03-22T00:08:39.570Z,9.457437
2023-03-22T00:09:39.612Z,9.457264
2023-03-22T00:10:39.918Z,9.457214
2023-03-22T00:11:39.547Z,9.457324
2023-03-22T00:12:39.538Z,9.457415
2023-03-22T00:13:39.529Z,9.457337
2023-03-22T00:14:39.529Z,9.457676
2023-03-22T00:15:39.589Z,9.457485
2023-03-22T00:16:39.522Z,9.457381
2023-03-22T00:17:39.483Z,9.457268
2023-03-22T00:18:39.475Z,9.457450
2023-03-22T00:19:39.488Z,9.457569
2023-03-22T00:20:39.741Z,9.457444
2023-03-22T00:21:39.450Z,9.457296
2023-03-22T00:22:39.448Z,9.457302
2023-03-22T00:23:39.431Z,9.457174
2023-03-22T00:24:39.445Z,9.457326
2023-03-22T00:25:39.407Z,9.457280
2023-03-22T00:26:39.418Z,9.457237
2023-03-22T00:27:39.407Z,9.457318
2023-03-22T00:28:39.391Z,9.457266
2023-03-22T00:29:39.421Z,9.457308
2023-03-22T00:30:39.693Z,9.457322
2023-03-22T00:31:39.419Z,9.457528
2023-03-22T00:32:39.377Z,9.457430
2023-03-22T00:33:39.352Z,9.457191
2023-03-22T00:34:39.351Z,9.457227
2023-03-22T00:35:39.372Z,9.457259
2023-03-22T00:36:39.305Z,9.457275
2023-03-22T00:37:39.311Z,9.457262
2023-03-22T00:38:45.549Z,9.457152
2023-03-22T00:39:41.310Z,9.456997
2023-03-22T00:40:40.441Z,9.457247
2023-03-22T00:41:39.262Z,9.457197
2023-03-22T00:42:39.249Z,9.456994
2023-03-22T00:43:39.245Z,9.457121
2023-03-22T00:44:39.266Z,9.457248
2023-03-22T00:45:39.219Z,9.457124
2023-03-22T00:46:39.222Z,9.457006
2023-03-22T00:47:39.202Z,9.457185
2023-03-22T00:48:39.183Z,9.457270
2023-03-22T00:49:39.202Z,9.457110
2023-03-22T00:50:39.395Z,9.457107
2023-03-22T00:51:39.147Z,9.457111
2023-03-22T00:52:39.145Z,9.457119
2023-03-22T00:53:42.424Z,9.457227
2023-03-22T00:54:39.129Z,9.457155
2023-03-22T00:55:39.138Z,9.457156
2023-03-22T00:56:39.120Z,9.457170
2023-03-22T00:57:39.128Z,9.457387
2023-03-22T00:58:39.101Z,9.457059
2023-03-22T00:59:39.082Z,9.457009
2023-03-22T01:00:39.441Z,9.457358
2023-03-22T01:01:39.063Z,9.457220
2023-03-22T01:02:39.051Z,9.457137
2023-03-22T01:03:39.068Z,9.457241
2023-03-22T01:04:39.053Z,9.457336
2023-03-22T01:05:39.061Z,9.457323
2023-03-22T01:06:39.007Z,9.457396
2023-03-22T01:07:39.007Z,9.457486
2023-03-22T01:08:39.412Z,9.457520
2023-03-22T01:09:38.985Z,9.457579
2023-03-22T01:10:39.201Z,9.457295
2023-03-22T01:11:38.948Z,9.456881
2023-03-22T01:12:38.944Z,9.457194
2023-03-22T01:13:38.940Z,9.457167
2023-03-22T01:14:38.929Z,9.457284
2023-03-22T01:15:38.960Z,9.457119
2023-03-22T01:16:38.961Z,9.457104
2023-03-22T01:17:38.901Z,9.457202
2023-03-22T01:18:38.892Z,9.457240
2023-03-22T01:19:38.882Z,9.457231
2023-03-22T01:20:39.293Z,9.457237
2023-03-22T01:21:38.871Z,9.457249
2023-03-22T01:22:38.853Z,9.457179
2023-03-22T01:23:38.849Z,9.457156
2023-03-22T01:24:38.843Z,9.457118
2023-03-22T01:25:38.844Z,9.457234
2023-03-22T01:26:38.809Z,9.457031
2023-03-22T01:27:38.806Z,9.457073
2023-03-22T01:28:38.785Z,9.457215
2023-03-22T01:29:38.786Z,9.457162
2023-03-22T01:30:39.078Z,9.457329
2023-03-22T01:31:38.768Z,9.457321
2023-03-22T01:32:38.763Z,9.457243
2023-03-22T01:33:38.778Z,9.457220
2023-03-22T01:34:38.729Z,9.457222
2023-03-22T01:35:38.769Z,9.457171
2023-03-22T01:36:38.712Z,9.457283
2023-03-22T01:37:38.706Z,9.457363
2023-03-22T01:38:38.715Z,9.457298
2023-03-22T01:39:38.724Z,9.457344
2023-03-22T01:40:39.023Z,9.457330
2023-03-22T01:41:38.672Z,9.457267
2023-03-22T01:42:38.674Z,9.457201
2023-03-22T01:43:38.658Z,9.457306
2023-03-22T01:44:38.639Z,9.457385
2023-03-22T01:45:38.680Z,9.457347
2023-03-22T01:46:38.716Z,9.457273
2023-03-22T01:47:38.610Z,9.457287
2023-03-22T01:48:38.721Z,9.457197
2023-03-22T01:49:38.593Z,9.457184
2023-03-22T01:50:38.882Z,9.457313
2023-03-22T01:51:38.574Z,9.457303
2023-03-22T01:52:38.557Z,9.457333
2023-03-22T01:53:38.556Z,9.457354
2023-03-22T01:54:38.550Z,9.457332
2023-03-22T01:55:38.560Z,9.457336
2023-03-22T01:56:38.525Z,9.457229
2023-03-22T01:57:38.517Z,9.457273
2023-03-22T01:58:38.503Z,9.457293
2023-03-22T01:59:38.500Z,9.457250
2023-03-22T02:00:38.825Z,9.457337
2023-03-22T02:01:38.497Z,9.457380
2023-03-22T02:02:39.530Z,9.457442
2023-03-22T02:03:38.452Z,9.457383
2023-03-22T02:04:38.493Z,9.457326
2023-03-22T02:05:38.469Z,9.457270
2023-03-22T02:06:38.466Z,9.457172
2023-03-22T02:07:38.420Z,9.457226
2023-03-22T02:08:38.406Z,9.457322
2023-03-22T02:09:38.397Z,9.457325
2023-03-22T02:10:38.575Z,9.457332
2023-03-22T02:11:38.374Z,9.457459
2023-03-22T02:12:38.365Z,9.457294
2023-03-22T02:13:38.364Z,9.457283
2023-03-22T02:14:38.353Z,9.457319
2023-03-22T02:15:39.428Z,9.457240
2023-03-22T02:16:38.392Z,9.457314
2023-03-22T02:17:38.326Z,9.457201
2023-03-22T02:18:38.312Z,9.457346
2023-03-22T02:19:38.303Z,9.457363
2023-03-22T02:20:38.699Z,9.457285
2023-03-22T02:21:38.275Z,9.457355
2023-03-22T02:22:38.277Z,9.457341
2023-03-22T02:23:38.260Z,9.457297
2023-03-22T02:24:38.278Z,9.457250
2023-03-22T02:25:38.295Z,9.457333
2023-03-22T02:26:38.234Z,9.457291
2023-03-22T02:27:38.242Z,9.457370
2023-03-22T02:28:38.234Z,9.457354
2023-03-22T02:29:38.207Z,9.457327
2023-03-22T02:30:38.554Z,9.457283
2023-03-22T02:31:38.255Z,9.457240
2023-03-22T02:32:38.190Z,9.457207
2023-03-22T02:33:40.449Z,9.457309
2023-03-22T02:34:38.148Z,9.457136
2023-03-22T02:35:38.184Z,9.457205
2023-03-22T02:36:38.131Z,9.457288
2023-03-22T02:37:38.138Z,9.457327
2023-03-22T02:38:38.113Z,9.457283
2023-03-22T02:39:38.105Z,9.457398
2023-03-22T02:40:38.512Z,9.457389
2023-03-22T02:41:38.094Z,9.457324
2023-03-22T02:42:38.084Z,9.457357
2023-03-22T02:43:38.078Z,9.457299
2023-03-22T02:44:38.050Z,9.457334
2023-03-22T02:45:38.071Z,9.457279
2023-03-22T02:46:38.088Z,9.457280
2023-03-22T02:47:38.027Z,9.457313
2023-03-22T02:48:38.009Z,9.457375
2023-03-22T02:49:38.013Z,9.457405
2023-03-22T02:50:38.435Z,9.457392
2023-03-22T02:51:38.010Z,9.457361
2023-03-22T02:52:37.972Z,9.457303
2023-03-22T02:53:37.958Z,9.457351
2023-03-22T02:54:37.948Z,9.457390
2023-03-22T02:55:37.949Z,9.457393
2023-03-22T02:56:37.953Z,9.457284
2023-03-22T02:57:37.930Z,9.457211
2023-03-22T02:58:37.915Z,9.457263
2023-03-22T02:59:37.905Z,9.457286
2023-03-22T03:00:38.408Z,9.457264
2023-03-22T03:01:37.987Z,9.457373
2023-03-22T03:02:37.872Z,9.457276
2023-03-22T03:03:37.870Z,9.457225
2023-03-22T03:04:37.860Z,9.457213
2023-03-22T03:05:37.848Z,9.457178
2023-03-22T03:06:37.853Z,9.457151
2023-03-22T03:07:37.830Z,9.457215
2023-03-22T03:08:37.813Z,9.457239
2023-03-22T03:09:37.807Z,9.457272
2023-03-22T03:10:38.191Z,9.457208
2023-03-22T03:11:37.811Z,9.457146
2023-03-22T03:12:37.781Z,9.457231
2023-03-22T03:13:37.809Z,9.457157
2023-03-22T03:14:37.759Z,9.457172
2023-03-22T03:15:37.754Z,9.457057
2023-03-22T03:16:37.822Z,9.457191
2023-03-22T03:17:37.729Z,9.457183
2023-03-22T03:18:37.721Z,9.457291
2023-03-22T03:19:37.710Z,9.457282
2023-03-22T03:20:38.304Z,9.457229
2023-03-22T03:21:37.690Z,9.457296
2023-03-22T03:22:37.680Z,9.457229
2023-03-22T03:23:37.670Z,9.457209
2023-03-22T03:24:37.670Z,9.457214
2023-03-22T03:25:37.702Z,9.457191
2023-03-22T03:26:37.649Z,9.457273
2023-03-22T03:27:37.638Z,9.457252
2023-03-22T03:28:37.656Z,9.457270
2023-03-22T03:29:37.619Z,9.457294
2023-03-22T03:30:37.949Z,9.457260
2023-03-22T03:31:37.659Z,9.457240
2023-03-22T03:32:37.584Z,9.457275
2023-03-22T03:33:37.587Z,9.457259
2023-03-22T03:34:37.562Z,9.457171
2023-03-22T03:35:37.636Z,9.457125
2023-03-22T03:36:37.541Z,9.457295
2023-03-22T03:37:37.546Z,9.457175
2023-03-22T03:38:37.517Z,9.457186
2023-03-22T03:39:37.514Z,9.457217
2023-03-22T03:40:37.988Z,9.457143
2023-03-22T03:41:37.495Z,9.457145
2023-03-22T03:42:37.497Z,9.457193
2023-03-22T03:43:37.497Z,9.457206
2023-03-22T03:44:37.493Z,9.457217
2023-03-22T03:45:37.535Z,9.457158
2023-03-22T03:46:37.437Z,9.457157
2023-03-22T03:47:37.432Z,9.457278
2023-03-22T03:48:37.422Z,9.457392
2023-03-22T03:49:37.416Z,9.457334
2023-03-22T03:50:37.691Z,9.457247
2023-03-22T03:51:37.396Z,9.457177
2023-03-22T03:52:37.378Z,9.457249
2023-03-22T03:53:37.370Z,9.457332
2023-03-22T03:54:37.368Z,9.457333
2023-03-22T03:55:37.371Z,9.457245
2023-03-22T03:56:37.350Z,9.457218
2023-03-22T03:57:37.335Z,9.457227
2023-03-22T03:58:37.343Z,9.457224
2023-03-22T03:59:37.332Z,9.457218
2023-03-22T04:00:37.464Z,9.457227
2023-03-22T04:01:37.301Z,9.457143
2023-03-22T04:02:37.376Z,9.457090
2023-03-22T04:03:37.296Z,9.457044
2023-03-22T04:05:09.172Z,9.457143
2023-03-22T04:05:37.263Z,9.457233
2023-03-22T04:06:37.245Z,9.457394
2023-03-22T04:07:37.266Z,9.457211
2023-03-22T04:08:37.228Z,9.457017
2023-03-22T04:09:37.247Z,9.457128
2023-03-22T04:10:37.455Z,9.456957
2023-03-22T04:11:37.201Z,9.457021
2023-03-22T04:12:37.212Z,9.457220
2023-03-22T04:13:37.179Z,9.457026
2023-03-22T04:14:37.169Z,9.457226
2023-03-22T04:15:37.157Z,9.457140
2023-03-22T04:16:37.206Z,9.456908
2023-03-22T04:17:37.167Z,9.457165
2023-03-22T04:18:37.139Z,9.457434
2023-03-22T04:19:37.123Z,9.457553
2023-03-22T04:20:37.453Z,9.457156
2023-03-22T04:21:37.098Z,9.456982
2023-03-22T04:22:37.085Z,9.457056
2023-03-22T04:23:37.084Z,9.456955
2023-03-22T04:24:37.075Z,9.457034
2023-03-22T04:25:37.085Z,9.457021
2023-03-22T04:26:37.090Z,9.457070
2023-03-22T04:27:37.037Z,9.457104
2023-03-22T04:28:37.035Z,9.457042
2023-03-22T04:29:37.009Z,9.457030
2023-03-22T04:30:37.147Z,9.457034
2023-03-22T04:31:36.992Z,9.457335
2023-03-22T04:32:36.983Z,9.457285
2023-03-22T04:33:36.974Z,9.457056
2023-03-22T04:34:36.960Z,9.457241
2023-03-22T04:35:36.988Z,9.457172
2023-03-22T04:36:36.955Z,9.457169
2023-03-22T04:37:36.947Z,9.457029
2023-03-22T04:38:36.931Z,9.457041
2023-03-22T04:39:36.907Z,9.457161
2023-03-22T04:40:38.527Z,9.457099
2023-03-22T04:41:36.921Z,9.457124
2023-03-22T04:42:36.882Z,9.457124
2023-03-22T04:43:36.882Z,9.457155
2023-03-22T04:44:36.870Z,9.457147
2023-03-22T04:45:36.841Z,9.457199
2023-03-22T04:46:37.892Z,9.457193
2023-03-22T04:47:36.827Z,9.457113
2023-03-22T04:48:36.834Z,9.457130
2023-03-22T04:49:36.816Z,9.457137
2023-03-22T04:50:36.943Z,9.457099
2023-03-22T04:51:36.835Z,9.457142
2023-03-22T04:52:36.784Z,9.457104
2023-03-22T04:53:36.772Z,9.457098
2023-03-22T04:54:36.757Z,9.457141
2023-03-22T04:55:36.755Z,9.457257
2023-03-22T04:56:36.789Z,9.457195
2023-03-22T04:57:37.715Z,9.457159
2023-03-22T04:58:36.745Z,9.457086
2023-03-22T04:59:36.726Z,9.457152
2023-03-22T05:00:36.721Z,9.457005
2023-03-22T05:01:36.719Z,9.457061
2023-03-22T05:02:36.745Z,9.457250
2023-03-22T05:03:36.703Z,9.457404
2023-03-22T05:04:36.658Z,9.457279
2023-03-22T05:05:36.651Z,9.457175
2023-03-22T05:06:36.648Z,9.457092
2023-03-22T05:07:36.631Z,9.457047
2023-03-22T05:08:36.676Z,9.457206
2023-03-22T05:09:36.612Z,9.457109
2023-03-22T05:10:36.594Z,9.457150
2023-03-22T05:11:36.636Z,9.457126
2023-03-22T05:12:36.602Z,9.457192
2023-03-22T05:13:36.580Z,9.457053
2023-03-22T05:14:36.649Z,9.457092
2023-03-22T05:15:36.550Z,9.457120
2023-03-22T05:16:37.557Z,9.457268
2023-03-22T05:17:36.538Z,9.457285
2023-03-22T05:18:36.519Z,9.457186
2023-03-22T05:19:36.518Z,9.457226
2023-03-22T05:20:36.514Z,9.457154
2023-03-22T05:21:36.625Z,9.457106
2023-03-22T05:22:36.480Z,9.457116
2023-03-22T05:23:36.496Z,9.457127
2023-03-22T05:24:36.455Z,9.457229
2023-03-22T05:25:36.458Z,9.457128
2023-03-22T05:26:36.482Z,9.457186
2023-03-22T05:27:36.429Z,9.457304
2023-03-22T05:28:36.416Z,9.457400
2023-03-22T05:29:36.408Z,9.457312
2023-03-22T05:30:36.431Z,9.457264
2023-03-22T05:31:36.436Z,9.457216
2023-03-22T05:32:36.382Z,9.457308
2023-03-22T05:33:36.366Z,9.457277
2023-03-22T05:34:36.350Z,9.457076
2023-03-22T05:35:36.406Z,9.457027
2023-03-22T05:36:36.403Z,9.457302
2023-03-22T05:37:36.330Z,9.457357
2023-03-22T05:38:36.333Z,9.456960
2023-03-22T05:39:36.311Z,9.457152
2023-03-22T05:40:36.307Z,9.457059
2023-03-22T05:41:36.969Z,9.457147
2023-03-22T05:42:37.279Z,9.457147
2023-03-22T05:43:36.276Z,9.457118
2023-03-22T05:44:36.261Z,9.457065
2023-03-22T05:45:36.246Z,9.457149
2023-03-22T05:46:36.293Z,9.457010
2023-03-22T05:47:36.225Z,9.457108
2023-03-22T05:48:36.215Z,9.457020
2023-03-22T05:49:36.210Z,9.457191
2023-03-22T05:50:36.219Z,9.457409
2023-03-22T05:51:36.231Z,9.457247
2023-03-22T05:52:36.181Z,9.457405
2023-03-22T05:53:36.162Z,9.457171
2023-03-22T05:54:36.151Z,9.457189
2023-03-22T05:55:36.149Z,9.457141
2023-03-22T05:56:36.200Z,9.457094
2023-03-22T05:57:36.130Z,9.456918
2023-03-22T05:58:36.110Z,9.456911
2023-03-22T05:59:36.107Z,9.456971
2023-03-22T06:00:36.092Z,9.457077
2023-03-22T06:01:36.119Z,9.456870
2023-03-22T06:02:36.079Z,9.456939
2023-03-22T06:03:36.148Z,9.456926
2023-03-22T06:04:36.052Z,9.457055
2023-03-22T06:05:36.051Z,9.457076
2023-03-22T06:06:36.093Z,9.457319
2023-03-22T06:07:36.018Z,9.457337
2023-03-22T06:08:36.018Z,9.457304
2023-03-22T06:09:35.999Z,9.457132
2023-03-22T06:10:36.014Z,9.457239
2023-03-22T06:11:35.996Z,9.457250
2023-03-22T06:12:36.945Z,9.457286
2023-03-22T06:13:35.960Z,9.457317
2023-03-22T06:14:35.965Z,9.457414
2023-03-22T06:15:35.941Z,9.457363
2023-03-22T06:16:36.038Z,9.457243
2023-03-22T06:17:35.915Z,9.457170
2023-03-22T06:18:35.917Z,9.457185
2023-03-22T06:19:35.902Z,9.457258
2023-03-22T06:20:35.948Z,9.457278
2023-03-22T06:21:35.952Z,9.457323
2023-03-22T06:22:35.901Z,9.457310
2023-03-22T06:23:35.867Z,9.457315
2023-03-22T06:24:35.873Z,9.457358
2023-03-22T06:25:35.892Z,9.457402
2023-03-22T06:26:35.907Z,9.457320
2023-03-22T06:27:35.830Z,9.457401
2023-03-22T06:28:35.851Z,9.457428
2023-03-22T06:29:35.807Z,9.457356
2023-03-22T06:30:35.817Z,9.457220
2023-03-22T06:31:35.852Z,9.457230
2023-03-22T06:32:35.789Z,9.457314
2023-03-22T06:33:35.749Z,9.457363
2023-03-22T06:34:35.782Z,9.457397
2023-03-22T06:35:35.794Z,9.457436
2023-03-22T06:36:35.754Z,9.457487
2023-03-22T06:37:35.707Z,9.457538
2023-03-22T06:38:35.714Z,9.457376
2023-03-22T06:39:35.692Z,9.457368
2023-03-22T06:40:35.713Z,9.457384
2023-03-22T06:41:36.744Z,9.457365
2023-03-22T06:42:35.675Z,9.457362
2023-03-22T06:43:35.650Z,9.457320
2023-03-22T06:44:35.647Z,9.457349
2023-03-22T06:45:35.647Z,9.457410
2023-03-22T06:46:35.676Z,9.457374
2023-03-22T06:47:35.620Z,9.457363
2023-03-22T06:48:35.603Z,9.457343
2023-03-22T06:49:35.625Z,9.457332
2023-03-22T06:50:35.581Z,9.457312
2023-03-22T06:51:35.634Z,9.457318
2023-03-22T06:52:35.569Z,9.457320
2023-03-22T06:53:35.550Z,9.457385
2023-03-22T06:54:35.549Z,9.457388
2023-03-22T06:55:35.548Z,9.457314
2023-03-22T06:56:35.618Z,9.457327
2023-03-22T06:57:35.520Z,9.457315
2023-03-22T06:58:35.507Z,9.457398
2023-03-22T06:59:35.496Z,9.457242
2023-03-22T07:00:35.489Z,9.457185
2023-03-22T07:01:35.495Z,9.457173
2023-03-22T07:02:35.501Z,9.457304
2023-03-22T07:03:35.464Z,9.457293
2023-03-22T07:04:35.461Z,9.457325
2023-03-22T07:05:35.619Z,9.457298
2023-03-22T07:06:35.437Z,9.457270
2023-03-22T07:07:35.463Z,9.457245
2023-03-22T07:08:35.449Z,9.457346
2023-03-22T07:09:35.416Z,9.457402
2023-03-22T07:10:35.412Z,9.457418
2023-03-22T07:11:35.406Z,9.457335
2023-03-22T07:12:35.415Z,9.457353
2023-03-22T07:13:35.386Z,9.457294
2023-03-22T07:14:35.364Z,9.457273
2023-03-22T07:15:35.408Z,9.457326
2023-03-22T07:16:35.335Z,9.457451
2023-03-22T07:17:35.356Z,9.457347
2023-03-22T07:18:35.310Z,9.457238
2023-03-22T07:19:35.311Z,9.457189
2023-03-22T07:20:35.303Z,9.457222
2023-03-22T07:21:35.295Z,9.457203
2023-03-22T07:22:35.300Z,9.457328
2023-03-22T07:23:35.280Z,9.457233
2023-03-22T07:24:37.192Z,9.457247
2023-03-22T07:25:36.246Z,9.457138
2023-03-22T07:26:35.239Z,9.457217
2023-03-22T07:27:35.255Z,9.457233
2023-03-22T07:28:35.234Z,9.457245
2023-03-22T07:29:35.206Z,9.457187
2023-03-22T07:30:35.225Z,9.457263
2023-03-22T07:31:35.183Z,9.457351
2023-03-22T07:32:35.248Z,9.457360
2023-03-22T07:33:35.214Z,9.457284
2023-03-22T07:34:35.157Z,9.457392
2023-03-22T07:35:35.242Z,9.457278
2023-03-22T07:36:35.144Z,9.457277
2023-03-22T07:37:35.144Z,9.457273
2023-03-22T07:38:35.129Z,9.457207
2023-03-22T07:39:35.121Z,9.457340
2023-03-22T07:40:35.125Z,9.457211
2023-03-22T07:41:35.091Z,9.457212
2023-03-22T07:42:35.138Z,9.457369
2023-03-22T07:43:47.304Z,9.457284
2023-03-22T07:44:37.065Z,9.457287
2023-03-22T07:45:35.078Z,9.457271
2023-03-22T07:46:35.076Z,9.457316
2023-03-22T07:47:41.042Z,9.457329
2023-03-22T07:48:37.036Z,9.457299
2023-03-22T07:49:35.015Z,9.457348
2023-03-22T07:50:35.055Z,9.457390
2023-03-22T07:51:34.998Z,9.457336
2023-03-22T07:52:35.045Z,9.457082
2023-03-22T07:53:34.988Z,9.457130
2023-03-22T07:54:34.985Z,9.457201
2023-03-22T07:55:34.972Z,9.457188
2023-03-22T07:56:34.957Z,9.457103
2023-03-22T07:57:34.952Z,9.456980
2023-03-22T07:58:34.932Z,9.457111
2023-03-22T07:59:34.919Z,9.457223
2023-03-22T08:00:34.915Z,9.457207
2023-03-22T08:01:34.995Z,9.457179
2023-03-22T08:02:34.927Z,9.457168
2023-03-22T08:03:34.900Z,9.457285
2023-03-22T08:04:34.886Z,9.457274
2023-03-22T08:05:34.864Z,9.457382
2023-03-22T08:06:34.841Z,9.457338
2023-03-22T08:07:35.879Z,9.457373
2023-03-22T08:08:34.844Z,9.457353
2023-03-22T08:09:34.820Z,9.457281
2023-03-22T08:10:34.944Z,9.457171
2023-03-22T08:11:34.809Z,9.457111
2023-03-22T08:12:34.825Z,9.457230
2023-03-22T08:13:34.782Z,9.457272
2023-03-22T08:14:36.825Z,9.457377
2023-03-22T08:15:35.784Z,9.457174
2023-03-22T08:16:34.790Z,9.457304
2023-03-22T08:17:34.762Z,9.457238
2023-03-22T08:18:34.738Z,9.457175
2023-03-22T08:19:34.722Z,9.456976
2023-03-22T08:20:34.717Z,9.457055
2023-03-22T08:21:34.710Z,9.457129
2023-03-22T08:22:34.728Z,9.457309
2023-03-22T08:23:41.796Z,9.457261
2023-03-22T08:24:36.681Z,9.457054
2023-03-22T08:25:34.669Z,9.457241
2023-03-22T08:26:34.658Z,9.457264
2023-03-22T08:27:34.691Z,9.457305
2023-03-22T08:28:34.643Z,9.457399
2023-03-22T08:29:34.641Z,9.457223
2023-03-22T08:30:34.621Z,9.457155
2023-03-22T08:31:34.633Z,9.457215
2023-03-22T08:32:34.617Z,9.457178
2023-03-22T08:33:34.596Z,9.457219
2023-03-22T08:34:34.622Z,9.457177
2023-03-22T08:35:34.574Z,9.457266
2023-03-22T08:36:34.553Z,9.457239
2023-03-22T08:37:34.566Z,9.457275
2023-03-22T08:38:34.539Z,9.457318
2023-03-22T08:39:34.540Z,9.457253
2023-03-22T08:40:34.594Z,9.457237
2023-03-22T08:41:34.513Z,9.457176
2023-03-22T08:42:34.535Z,9.457158
2023-03-22T08:43:34.488Z,9.457223
2023-03-22T08:44:34.481Z,9.457148
2023-03-22T08:45:34.470Z,9.457137
2023-03-22T08:46:34.537Z,9.457233
2023-03-22T08:47:34.470Z,9.457216
2023-03-22T08:48:34.437Z,9.457206
2023-03-22T08:49:34.454Z,9.457177
2023-03-22T08:50:34.455Z,9.457270
2023-03-22T08:51:34.424Z,9.457164
2023-03-22T08:52:34.434Z,9.457223
2023-03-22T08:53:34.419Z,9.457269
2023-03-22T08:54:35.017Z,9.457303
2023-03-22T08:55:34.368Z,9.457333
2023-03-22T08:56:34.367Z,9.457305
2023-03-22T08:57:34.692Z,9.457158
2023-03-22T08:58:35.340Z,9.457222
2023-03-22T08:59:34.357Z,9.457261
2023-03-22T09:00:47.780Z,9.457232
2023-03-22T09:01:36.431Z,9.457191
2023-03-22T09:02:34.349Z,9.457226
2023-03-22T09:03:34.291Z,9.457261
2023-03-22T09:04:34.311Z,9.457168
2023-03-22T09:05:34.277Z,9.457108
2023-03-22T09:06:34.265Z,9.457149
2023-03-22T09:07:34.273Z,9.457200
2023-03-22T09:08:34.234Z,9.457195
2023-03-22T09:09:35.236Z,9.457181
2023-03-22T09:10:34.229Z,9.457247
2023-03-22T09:11:34.214Z,9.457272
2023-03-22T09:12:34.229Z,9.457243
2023-03-22T09:13:34.198Z,9.457348
2023-03-22T09:14:34.191Z,9.457246
2023-03-22T09:15:34.201Z,9.457154
2023-03-22T09:16:34.935Z,9.457194
2023-03-22T09:17:34.152Z,9.457189
2023-03-22T09:18:34.174Z,9.457122
2023-03-22T09:19:35.294Z,9.457268
2023-03-22T09:20:34.156Z,9.457229
2023-03-22T09:21:34.145Z,9.457158
2023-03-22T09:22:34.111Z,9.457280
2023-03-22T09:23:34.110Z,9.457336
2023-03-22T09:24:34.078Z,9.457286
2023-03-22T09:25:34.084Z,9.457271
2023-03-22T09:26:34.072Z,9.457301
2023-03-22T09:27:34.059Z,9.457319
2023-03-22T09:28:34.074Z,9.457261
2023-03-22T09:29:34.033Z,9.457274
2023-03-22T09:30:34.056Z,9.457324
2023-03-22T09:31:34.100Z,9.457309
2023-03-22T09:32:34.749Z,9.457211
2023-03-22T09:33:33.992Z,9.457241
2023-03-22T09:34:33.986Z,9.457304
2023-03-22T09:35:33.998Z,9.457180
2023-03-22T09:36:33.960Z,9.457305
2023-03-22T09:37:33.970Z,9.457276
2023-03-22T09:38:34.014Z,9.457200
2023-03-22T09:39:33.922Z,9.457163
2023-03-22T09:40:33.933Z,9.457234
2023-03-22T09:41:33.916Z,9.457170
2023-03-22T09:42:33.945Z,9.457180
2023-03-22T09:43:33.891Z,9.457195
2023-03-22T09:44:33.883Z,9.457225
2023-03-22T09:45:33.874Z,9.457243
2023-03-22T09:46:33.929Z,9.457232
2023-03-22T09:47:44.476Z,9.457234
2023-03-22T09:48:35.855Z,9.457231
2023-03-22T09:49:46.943Z,9.457210
2023-03-22T09:50:35.828Z,9.457141
2023-03-22T09:51:33.815Z,9.457253
2023-03-22T09:52:33.860Z,9.457312
2023-03-22T09:53:33.802Z,9.457261
2023-03-22T09:54:33.797Z,9.457226
2023-03-22T09:55:33.788Z,9.457253
2023-03-22T09:56:33.762Z,9.457306
2023-03-22T09:57:33.761Z,9.457278
2023-03-22T09:58:33.769Z,9.457349
2023-03-22T09:59:33.745Z,9.457263
2023-03-22T10:00:33.867Z,9.457223
2023-03-22T10:01:34.051Z,9.457265
2023-03-22T10:02:33.759Z,9.457294
2023-03-22T10:03:33.775Z,9.457284
2023-03-22T10:04:33.737Z,9.457302
2023-03-22T10:05:33.709Z,9.457309
2023-03-22T10:06:33.671Z,9.457208
2023-03-22T10:07:46.703Z,9.457155
2023-03-22T10:08:33.648Z,9.457157
2023-03-22T10:09:33.634Z,9.457355
2023-03-22T10:10:33.644Z,9.457454
2023-03-22T10:11:33.636Z,9.457239
2023-03-22T10:12:33.615Z,9.457339
2023-03-22T10:13:33.648Z,9.457306
2023-03-22T10:14:33.585Z,9.457455
2023-03-22T10:15:33.574Z,9.457286
2023-03-22T10:16:33.600Z,9.457260
2023-03-22T10:17:33.559Z,9.457433
2023-03-22T10:18:33.569Z,9.457305
2023-03-22T10:19:33.534Z,9.457443
2023-03-22T10:20:34.560Z,9.457385
2023-03-22T10:21:33.528Z,9.457349
2023-03-22T10:22:33.519Z,9.457320
2023-03-22T10:23:33.556Z,9.457273
2023-03-22T10:24:33.496Z,9.457263
2023-03-22T10:25:33.483Z,9.457166
2023-03-22T10:26:33.492Z,9.457327
2023-03-22T10:27:33.457Z,9.457271
2023-03-22T10:28:33.465Z,9.457295
2023-03-22T10:29:33.447Z,9.457353
2023-03-22T10:30:33.440Z,9.457321
2023-03-22T10:31:33.488Z,9.457332
2023-03-22T10:32:33.424Z,9.457343
2023-03-22T10:33:33.477Z,9.457318
2023-03-22T10:34:33.391Z,9.457325
2023-03-22T10:35:33.425Z,9.457302
2023-03-22T10:36:33.372Z,9.457331
2023-03-22T10:37:33.375Z,9.457351
2023-03-22T10:38:33.441Z,9.457355
2023-03-22T10:39:33.346Z,9.457319
2023-03-22T10:40:33.336Z,9.457352
2023-03-22T10:41:33.347Z,9.457341
2023-03-22T10:42:33.317Z,9.457427
2023-03-22T10:43:33.299Z,9.457438
2023-03-22T10:44:33.323Z,9.457388
2023-03-22T10:45:33.280Z,9.457438
2023-03-22T10:46:33.298Z,9.457309
2023-03-22T10:47:33.261Z,9.457324
2023-03-22T10:48:33.495Z,9.457329
2023-03-22T10:49:33.307Z,9.457319
2023-03-22T10:50:33.239Z,9.457313
2023-03-22T10:51:33.256Z,9.457311
2023-03-22T10:52:33.211Z,9.457167
2023-03-22T10:53:33.217Z,9.457225
2023-03-22T10:54:33.190Z,9.457299
2023-03-22T10:55:33.223Z,9.457273
2023-03-22T10:56:33.180Z,9.457263
2023-03-22T10:57:33.176Z,9.457251
2023-03-22T10:58:33.181Z,9.457318
2023-03-22T10:59:33.144Z,9.457232
2023-03-22T11:00:33.183Z,9.457184
2023-03-22T11:01:33.279Z,9.457143
2023-03-22T11:02:33.222Z,9.457210
2023-03-22T11:03:33.101Z,9.457163
2023-03-22T11:04:33.097Z,9.457141
2023-03-22T11:05:33.091Z,9.457297
2023-03-22T11:06:33.085Z,9.457242
2023-03-22T11:07:33.068Z,9.457180
2023-03-22T11:08:33.078Z,9.457148
2023-03-22T11:09:33.050Z,9.457048
2023-03-22T11:10:33.163Z,9.457163
2023-03-22T11:11:33.051Z,9.457176
2023-03-22T11:12:33.027Z,9.457201
2023-03-22T11:13:33.029Z,9.457147
2023-03-22T11:14:33.005Z,9.457148
2023-03-22T11:15:32.993Z,9.457092
2023-03-22T11:16:33.030Z,9.457175
2023-03-22T11:17:32.971Z,9.457139
2023-03-22T11:18:32.983Z,9.457116
2023-03-22T11:19:32.948Z,9.457144
2023-03-22T11:20:33.015Z,9.457174
2023-03-22T11:21:32.963Z,9.457142
2023-03-22T11:22:32.915Z,9.457099
2023-03-22T11:23:32.941Z,9.457170
2023-03-22T11:24:32.937Z,9.457244
2023-03-22T11:25:32.897Z,9.457115
2023-03-22T11:26:33.267Z,9.457080
2023-03-22T11:27:32.913Z,9.457054
2023-03-22T11:28:32.878Z,9.457114
2023-03-22T11:29:32.848Z,9.457048
2023-03-22T11:30:32.839Z,9.457008
2023-03-22T11:31:32.849Z,9.457185
2023-03-22T11:32:32.886Z,9.457208
2023-03-22T11:33:32.833Z,9.457135
2023-03-22T11:34:32.845Z,9.457079
2023-03-22T11:35:32.822Z,9.457094
2023-03-22T11:36:32.790Z,9.457049
2023-03-22T11:37:32.782Z,9.457045
2023-03-22T11:38:32.782Z,9.457172
2023-03-22T11:39:32.748Z,9.457224
2023-03-22T11:40:32.765Z,9.456984
2023-03-22T11:41:32.737Z,9.457055
2023-03-22T11:42:32.736Z,9.457115
2023-03-22T11:43:32.807Z,9.457266
2023-03-22T11:44:32.712Z,9.457433